DLH4PM EDDH-EGSS
Flight info
| Callsign | DLH4PM |
|---|---|
| Flight time | 1h 15m |
| Altitude | 36000 |
| Route | WSN5G WSN N125 EKNON DCT NOGRO M40 RINIS |
| Aircraft | A320/M-SDE3FGHIRWY/LB1 |
Departure
| Time | 2026-05-04 11:19 |
|---|---|
| Airport | Hamburg Helmut Schmidt Airport (EDDH) |
Arrival
| Time | 2026-05-04 12:34 |
|---|---|
| Airport | London Stansted Airport (EGSS) |
| Time | Latitude | Longitude | Altitude | Speed | Heading |
|---|---|---|---|---|---|
| 2026-05-04 10:42 | 53.63260 | 10.00073 | 45 ft | 0 kts | 321° |
| 2026-05-04 11:12 | 53.63249 | 10.00089 | 45 ft | 4 kts | 311° |
| 2026-05-04 11:13 | 53.63236 | 10.00125 | 45 ft | 4 kts | 272° |
| 2026-05-04 11:13 | 53.63243 | 10.00161 | 45 ft | 4 kts | 216° |
| 2026-05-04 11:13 | 53.63264 | 10.00175 | 44 ft | 2 kts | 176° |
| 2026-05-04 11:13 | 53.63265 | 10.00175 | 44 ft | 0 kts | 175° |
| 2026-05-04 11:16 | 53.63001 | 10.00110 | 44 ft | 15 kts | 213° |
| 2026-05-04 11:16 | 53.62926 | 10.00012 | 46 ft | 11 kts | 235° |
| 2026-05-04 11:16 | 53.62894 | 9.99910 | 46 ft | 11 kts | 240° |
| 2026-05-04 11:17 | 53.62866 | 9.99784 | 45 ft | 13 kts | 275° |
| 2026-05-04 11:17 | 53.62938 | 9.99684 | 47 ft | 17 kts | 333° |
| 2026-05-04 11:19 | 53.68707 | 9.93497 | 3235 ft | 170 kts | 309° |
| 2026-05-04 11:19 | 53.69446 | 9.91924 | 3867 ft | 175 kts | 302° |
| 2026-05-04 11:19 | 53.70102 | 9.90118 | 4384 ft | 189 kts | 295° |
| 2026-05-04 11:19 | 53.70664 | 9.87999 | 4849 ft | 207 kts | 288° |
| 2026-05-04 11:20 | 53.71063 | 9.85519 | 5077 ft | 237 kts | 271° |
| 2026-05-04 11:20 | 53.70785 | 9.82711 | 5024 ft | 249 kts | 253° |
| 2026-05-04 11:20 | 53.70155 | 9.79970 | 5013 ft | 252 kts | 248° |
| 2026-05-04 11:20 | 53.69439 | 9.77224 | 5281 ft | 260 kts | 248° |
| 2026-05-04 11:22 | 53.64827 | 9.56940 | 11581 ft | 279 kts | 239° |
| 2026-05-04 11:22 | 53.63712 | 9.54165 | 11870 ft | 302 kts | 238° |
| 2026-05-04 11:23 | 53.62529 | 9.51075 | 12092 ft | 325 kts | 239° |
| 2026-05-04 11:23 | 53.61484 | 9.47560 | 12229 ft | 348 kts | 246° |
| 2026-05-04 11:24 | 53.57388 | 9.31231 | 13956 ft | 390 kts | 248° |
| 2026-05-04 11:25 | 53.56334 | 9.27015 | 14544 ft | 392 kts | 247° |
| 2026-05-04 11:25 | 53.55268 | 9.22783 | 15133 ft | 394 kts | 247° |
| 2026-05-04 11:25 | 53.54189 | 9.18533 | 15721 ft | 396 kts | 247° |
| 2026-05-04 11:26 | 53.52371 | 9.11427 | 16698 ft | 400 kts | 246° |
| 2026-05-04 11:27 | 53.44554 | 8.80967 | 20190 ft | 412 kts | 246° |
| 2026-05-04 11:28 | 53.43408 | 8.76538 | 20634 ft | 414 kts | 246° |
| 2026-05-04 11:28 | 53.42277 | 8.72174 | 21003 ft | 417 kts | 246° |
| 2026-05-04 11:28 | 53.41116 | 8.67706 | 21400 ft | 419 kts | 246° |
| 2026-05-04 11:28 | 53.39998 | 8.63406 | 21781 ft | 420 kts | 246° |
| 2026-05-04 11:29 | 53.38847 | 8.58975 | 22163 ft | 422 kts | 246° |
| 2026-05-04 11:29 | 53.37685 | 8.54519 | 22540 ft | 423 kts | 245° |
| 2026-05-04 11:29 | 53.36498 | 8.49993 | 22912 ft | 425 kts | 245° |
| 2026-05-04 11:29 | 53.35306 | 8.45452 | 23284 ft | 426 kts | 245° |
| 2026-05-04 11:31 | 53.27094 | 8.14339 | 26518 ft | 414 kts | 246° |
| 2026-05-04 11:33 | 53.18985 | 7.84139 | 29963 ft | 401 kts | 246° |
| 2026-05-04 11:33 | 53.17844 | 7.79912 | 30384 ft | 399 kts | 246° |
| 2026-05-04 11:33 | 53.16707 | 7.75697 | 30770 ft | 399 kts | 246° |
| 2026-05-04 11:34 | 53.15589 | 7.71549 | 31125 ft | 399 kts | 245° |
| 2026-05-04 11:34 | 53.14451 | 7.67342 | 31479 ft | 399 kts | 245° |
| 2026-05-04 11:34 | 53.13309 | 7.63135 | 31841 ft | 399 kts | 245° |
| 2026-05-04 11:34 | 53.12232 | 7.59189 | 32166 ft | 399 kts | 245° |
| 2026-05-04 11:35 | 53.11146 | 7.55221 | 32498 ft | 399 kts | 245° |
| 2026-05-04 11:35 | 53.10035 | 7.51168 | 32817 ft | 399 kts | 245° |
| 2026-05-04 11:35 | 53.08975 | 7.47297 | 33131 ft | 399 kts | 245° |
| 2026-05-04 11:35 | 53.07835 | 7.43137 | 33471 ft | 399 kts | 245° |
| 2026-05-04 11:36 | 53.06724 | 7.39087 | 33795 ft | 400 kts | 245° |
| 2026-05-04 11:36 | 53.05618 | 7.35058 | 34104 ft | 400 kts | 245° |
| 2026-05-04 11:36 | 53.04503 | 7.31010 | 34372 ft | 400 kts | 245° |
| 2026-05-04 11:36 | 53.03361 | 7.26886 | 34640 ft | 401 kts | 245° |
| 2026-05-04 11:37 | 53.02228 | 7.22802 | 34916 ft | 400 kts | 245° |
| 2026-05-04 11:37 | 53.01226 | 7.18490 | 35210 ft | 400 kts | 251° |
| 2026-05-04 11:37 | 53.00340 | 7.14106 | 35485 ft | 400 kts | 251° |
| 2026-05-04 11:37 | 52.99457 | 7.09736 | 35752 ft | 401 kts | 251° |
| 2026-05-04 11:38 | 52.98563 | 7.05337 | 35934 ft | 403 kts | 251° |
| 2026-05-04 11:38 | 52.97663 | 7.00928 | 35986 ft | 404 kts | 251° |
| 2026-05-04 11:38 | 52.95855 | 6.92104 | 35998 ft | 404 kts | 251° |
| 2026-05-04 11:39 | 52.94038 | 6.83272 | 35994 ft | 404 kts | 250° |
| 2026-05-04 11:41 | 52.88182 | 6.55014 | 35999 ft | 407 kts | 250° |
| 2026-05-04 11:41 | 52.86516 | 6.47081 | 35996 ft | 408 kts | 250° |
| 2026-05-04 11:42 | 52.84877 | 6.39291 | 35985 ft | 409 kts | 250° |
| 2026-05-04 11:42 | 52.83206 | 6.31370 | 35978 ft | 407 kts | 250° |
| 2026-05-04 11:43 | 52.81450 | 6.23057 | 35990 ft | 406 kts | 250° |
| 2026-05-04 11:43 | 52.79574 | 6.14256 | 35992 ft | 406 kts | 250° |
| 2026-05-04 11:44 | 52.77697 | 6.05491 | 35991 ft | 406 kts | 250° |
| 2026-05-04 11:44 | 52.75914 | 5.97828 | 35996 ft | 408 kts | 246° |
| 2026-05-04 11:45 | 52.74075 | 5.90948 | 35996 ft | 409 kts | 245° |
| 2026-05-04 11:45 | 52.71954 | 5.83315 | 36000 ft | 409 kts | 245° |
| 2026-05-04 11:46 | 52.69998 | 5.76195 | 35996 ft | 409 kts | 245° |
| 2026-05-04 11:46 | 52.68132 | 5.69272 | 35999 ft | 409 kts | 246° |
| 2026-05-04 11:47 | 52.66154 | 5.61870 | 36002 ft | 409 kts | 246° |
| 2026-05-04 11:47 | 52.64164 | 5.54451 | 35999 ft | 409 kts | 245° |
| 2026-05-04 11:48 | 52.62329 | 5.47690 | 36002 ft | 409 kts | 245° |
| 2026-05-04 11:48 | 52.60335 | 5.40365 | 36000 ft | 409 kts | 245° |
| 2026-05-04 11:49 | 52.58361 | 5.33143 | 36002 ft | 409 kts | 245° |
| 2026-05-04 11:49 | 52.56260 | 5.25486 | 36001 ft | 409 kts | 245° |
| 2026-05-04 11:50 | 52.53919 | 5.16966 | 35999 ft | 409 kts | 245° |
| 2026-05-04 11:50 | 52.51572 | 5.08446 | 36001 ft | 409 kts | 245° |
| 2026-05-04 11:51 | 52.49219 | 4.99935 | 35997 ft | 409 kts | 245° |
| 2026-05-04 11:51 | 52.46858 | 4.91404 | 35999 ft | 412 kts | 244° |
| 2026-05-04 11:52 | 52.44471 | 4.82846 | 36004 ft | 413 kts | 244° |
| 2026-05-04 11:52 | 52.42077 | 4.74290 | 35993 ft | 412 kts | 244° |
| 2026-05-04 11:53 | 52.39685 | 4.65767 | 35997 ft | 411 kts | 244° |
| 2026-05-04 11:53 | 52.37295 | 4.57265 | 35993 ft | 411 kts | 244° |
| 2026-05-04 11:55 | 52.27644 | 4.23365 | 36005 ft | 411 kts | 243° |
| 2026-05-04 11:56 | 52.25219 | 4.14914 | 36004 ft | 411 kts | 243° |
| 2026-05-04 11:56 | 52.22787 | 4.06470 | 36012 ft | 411 kts | 243° |
| 2026-05-04 11:57 | 52.20358 | 3.98034 | 36007 ft | 411 kts | 243° |
| 2026-05-04 11:57 | 52.17919 | 3.89608 | 36013 ft | 412 kts | 243° |
| 2026-05-04 11:58 | 52.15477 | 3.81209 | 36016 ft | 413 kts | 243° |
| 2026-05-04 11:58 | 52.13010 | 3.72757 | 36015 ft | 413 kts | 243° |
| 2026-05-04 11:59 | 52.10537 | 3.64316 | 36018 ft | 413 kts | 243° |
| 2026-05-04 11:59 | 52.08052 | 3.55878 | 36018 ft | 414 kts | 243° |
| 2026-05-04 12:00 | 52.05556 | 3.47452 | 36021 ft | 414 kts | 242° |
| 2026-05-04 12:00 | 52.03056 | 3.39031 | 36026 ft | 415 kts | 242° |
| 2026-05-04 12:01 | 52.00539 | 3.30563 | 35947 ft | 417 kts | 242° |
| 2026-05-04 12:01 | 51.99269 | 3.26299 | 35570 ft | 421 kts | 242° |
| 2026-05-04 12:02 | 51.95368 | 2.98682 | 33302 ft | 424 kts | 259° |
| 2026-05-04 12:03 | 51.95051 | 2.93922 | 32898 ft | 426 kts | 259° |
| 2026-05-04 12:03 | 51.94729 | 2.89134 | 32515 ft | 429 kts | 260° |
| 2026-05-04 12:03 | 51.94403 | 2.84317 | 32116 ft | 431 kts | 260° |
| 2026-05-04 12:03 | 51.94075 | 2.79471 | 31724 ft | 433 kts | 260° |
| 2026-05-04 12:04 | 51.93744 | 2.74614 | 31340 ft | 435 kts | 260° |
| 2026-05-04 12:04 | 51.93414 | 2.69747 | 30962 ft | 432 kts | 260° |
| 2026-05-04 12:04 | 51.93092 | 2.64956 | 30586 ft | 423 kts | 260° |
| 2026-05-04 12:04 | 51.92777 | 2.60262 | 30216 ft | 415 kts | 260° |
| 2026-05-04 12:05 | 51.92465 | 2.55662 | 29800 ft | 407 kts | 259° |
| 2026-05-04 12:05 | 51.92155 | 2.51144 | 29370 ft | 400 kts | 260° |
| 2026-05-04 12:05 | 51.91849 | 2.46704 | 28954 ft | 393 kts | 260° |
| 2026-05-04 12:05 | 51.91546 | 2.42341 | 28558 ft | 387 kts | 260° |
| 2026-05-04 12:06 | 51.91243 | 2.38033 | 28147 ft | 384 kts | 260° |
| 2026-05-04 12:06 | 51.90938 | 2.33758 | 27744 ft | 381 kts | 261° |
| 2026-05-04 12:06 | 51.90681 | 2.29502 | 27344 ft | 379 kts | 263° |
| 2026-05-04 12:06 | 51.90533 | 2.25250 | 26948 ft | 377 kts | 265° |
| 2026-05-04 12:07 | 51.90450 | 2.21019 | 26562 ft | 375 kts | 266° |
| 2026-05-04 12:07 | 51.90394 | 2.16810 | 26179 ft | 373 kts | 266° |
| 2026-05-04 12:07 | 51.90338 | 2.12625 | 25804 ft | 370 kts | 266° |
| 2026-05-04 12:07 | 51.90266 | 2.08470 | 25431 ft | 368 kts | 265° |
| 2026-05-04 12:08 | 51.90176 | 2.04342 | 25063 ft | 366 kts | 265° |
| 2026-05-04 12:08 | 51.90075 | 2.00240 | 24699 ft | 364 kts | 265° |
| 2026-05-04 12:08 | 51.89968 | 1.96165 | 24341 ft | 361 kts | 266° |
| 2026-05-04 12:08 | 51.90046 | 1.92101 | 23998 ft | 362 kts | 274° |
| 2026-05-04 12:09 | 51.90492 | 1.88082 | 23643 ft | 363 kts | 282° |
| 2026-05-04 12:09 | 51.91301 | 1.84205 | 23233 ft | 364 kts | 290° |
| 2026-05-04 12:09 | 51.92432 | 1.80533 | 22820 ft | 365 kts | 295° |
| 2026-05-04 12:09 | 51.93230 | 1.78141 | 22538 ft | 364 kts | 295° |
| 2026-05-04 12:10 | 51.94424 | 1.74537 | 22147 ft | 362 kts | 295° |
| 2026-05-04 12:10 | 51.95607 | 1.70941 | 21749 ft | 361 kts | 295° |
| 2026-05-04 12:10 | 51.96782 | 1.67364 | 21329 ft | 358 kts | 295° |
| 2026-05-04 12:10 | 51.97935 | 1.63857 | 20812 ft | 346 kts | 295° |
| 2026-05-04 12:11 | 51.99049 | 1.60463 | 20302 ft | 335 kts | 295° |
| 2026-05-04 12:11 | 52.00127 | 1.57166 | 19809 ft | 326 kts | 295° |
| 2026-05-04 12:11 | 52.01176 | 1.53950 | 19307 ft | 318 kts | 295° |
| 2026-05-04 12:11 | 52.02201 | 1.50812 | 18829 ft | 312 kts | 296° |
| 2026-05-04 12:12 | 52.03206 | 1.47733 | 18359 ft | 306 kts | 296° |
| 2026-05-04 12:12 | 52.04196 | 1.44698 | 17833 ft | 302 kts | 296° |
| 2026-05-04 12:12 | 52.05171 | 1.41707 | 17299 ft | 298 kts | 296° |
| 2026-05-04 12:12 | 52.06132 | 1.38749 | 16773 ft | 294 kts | 296° |
| 2026-05-04 12:13 | 52.07080 | 1.35821 | 16252 ft | 291 kts | 296° |
| 2026-05-04 12:14 | 52.10920 | 1.15319 | 12722 ft | 267 kts | 254° |
| 2026-05-04 12:15 | 52.10428 | 1.12419 | 12201 ft | 265 kts | 254° |
| 2026-05-04 12:15 | 52.09949 | 1.09539 | 11692 ft | 262 kts | 255° |
| 2026-05-04 12:15 | 52.09479 | 1.06690 | 11241 ft | 258 kts | 255° |
| 2026-05-04 12:15 | 52.09021 | 1.03916 | 10869 ft | 251 kts | 255° |
| 2026-05-04 12:16 | 52.08571 | 1.01195 | 10505 ft | 248 kts | 255° |
| 2026-05-04 12:16 | 52.08123 | 0.98499 | 10141 ft | 246 kts | 255° |
| 2026-05-04 12:16 | 52.07675 | 0.95818 | 9767 ft | 247 kts | 254° |
| 2026-05-04 12:16 | 52.07223 | 0.93116 | 9374 ft | 249 kts | 254° |
| 2026-05-04 12:17 | 52.06764 | 0.90396 | 8972 ft | 250 kts | 254° |
| 2026-05-04 12:17 | 52.06305 | 0.87674 | 8668 ft | 247 kts | 254° |
| 2026-05-04 12:17 | 52.05854 | 0.85006 | 8541 ft | 244 kts | 254° |
| 2026-05-04 12:17 | 52.05408 | 0.82355 | 8413 ft | 243 kts | 254° |
| 2026-05-04 12:18 | 52.04964 | 0.79709 | 8281 ft | 243 kts | 256° |
| 2026-05-04 12:18 | 52.04794 | 0.76986 | 8062 ft | 243 kts | 269° |
| 2026-05-04 12:18 | 52.04828 | 0.74267 | 7807 ft | 240 kts | 271° |
| 2026-05-04 12:18 | 52.04887 | 0.71577 | 7556 ft | 237 kts | 271° |
| 2026-05-04 12:19 | 52.04947 | 0.68921 | 7387 ft | 232 kts | 271° |
| 2026-05-04 12:19 | 52.05005 | 0.66314 | 7262 ft | 231 kts | 271° |
| 2026-05-04 12:19 | 52.05055 | 0.63710 | 7139 ft | 230 kts | 269° |
| 2026-05-04 12:19 | 52.04922 | 0.61122 | 7016 ft | 229 kts | 262° |
| 2026-05-04 12:20 | 52.04709 | 0.58564 | 6892 ft | 228 kts | 261° |
| 2026-05-04 12:20 | 52.04483 | 0.56003 | 6769 ft | 229 kts | 262° |
| 2026-05-04 12:20 | 52.04252 | 0.53445 | 6648 ft | 228 kts | 261° |
| 2026-05-04 12:20 | 52.04018 | 0.50895 | 6529 ft | 228 kts | 261° |
| 2026-05-04 12:21 | 52.03781 | 0.48345 | 6404 ft | 229 kts | 261° |
| 2026-05-04 12:21 | 52.03550 | 0.45792 | 6275 ft | 229 kts | 261° |
| 2026-05-04 12:21 | 52.03318 | 0.43224 | 6147 ft | 229 kts | 261° |
| 2026-05-04 12:21 | 52.03088 | 0.40672 | 6046 ft | 229 kts | 261° |
| 2026-05-04 12:22 | 52.02857 | 0.38122 | 5997 ft | 228 kts | 261° |
| 2026-05-04 12:22 | 52.02536 | 0.35609 | 6007 ft | 228 kts | 245° |
| 2026-05-04 12:22 | 52.01704 | 0.33425 | 6015 ft | 228 kts | 233° |
| 2026-05-04 12:22 | 52.00739 | 0.31389 | 6015 ft | 228 kts | 231° |
| 2026-05-04 12:23 | 51.99758 | 0.29374 | 6002 ft | 225 kts | 231° |
| 2026-05-04 12:23 | 51.98818 | 0.27454 | 5999 ft | 211 kts | 231° |
| 2026-05-04 12:23 | 51.97918 | 0.25616 | 5999 ft | 207 kts | 231° |
| 2026-05-04 12:23 | 51.97016 | 0.23774 | 5837 ft | 209 kts | 231° |
| 2026-05-04 12:24 | 51.96114 | 0.21941 | 5619 ft | 205 kts | 231° |
| 2026-05-04 12:24 | 51.95242 | 0.20166 | 5362 ft | 198 kts | 231° |
| 2026-05-04 12:24 | 51.94394 | 0.18441 | 5105 ft | 193 kts | 231° |
| 2026-05-04 12:24 | 51.93563 | 0.16752 | 4851 ft | 190 kts | 231° |
| 2026-05-04 12:25 | 51.92745 | 0.15093 | 4589 ft | 187 kts | 230° |
| 2026-05-04 12:25 | 51.91845 | 0.13603 | 4329 ft | 184 kts | 223° |
| 2026-05-04 12:25 | 51.90900 | 0.12228 | 4069 ft | 182 kts | 221° |
| 2026-05-04 12:25 | 51.89963 | 0.10888 | 3842 ft | 175 kts | 221° |
| 2026-05-04 12:26 | 51.89082 | 0.09633 | 3590 ft | 164 kts | 221° |
| 2026-05-04 12:26 | 51.88248 | 0.08446 | 3331 ft | 156 kts | 221° |
| 2026-05-04 12:26 | 51.87444 | 0.07303 | 3070 ft | 152 kts | 221° |
| 2026-05-04 12:26 | 51.86660 | 0.06191 | 2811 ft | 148 kts | 221° |
| 2026-05-04 12:27 | 51.85887 | 0.05099 | 2576 ft | 146 kts | 221° |
| 2026-05-04 12:27 | 51.85122 | 0.04022 | 2506 ft | 146 kts | 221° |
| 2026-05-04 12:27 | 51.84355 | 0.02943 | 2506 ft | 147 kts | 221° |
| 2026-05-04 12:27 | 51.83587 | 0.01864 | 2502 ft | 147 kts | 221° |
| 2026-05-04 12:28 | 51.82797 | 0.00818 | 2496 ft | 148 kts | 210° |
| 2026-05-04 12:28 | 51.81801 | 0.00529 | 2503 ft | 148 kts | 178° |
| 2026-05-04 12:28 | 51.80781 | 0.00687 | 2504 ft | 148 kts | 172° |
| 2026-05-04 12:28 | 51.79763 | 0.00900 | 2502 ft | 150 kts | 171° |
| 2026-05-04 12:29 | 51.78728 | 0.01117 | 2504 ft | 150 kts | 171° |
| 2026-05-04 12:29 | 51.77692 | 0.01337 | 2498 ft | 150 kts | 171° |
| 2026-05-04 12:29 | 51.76732 | 0.01885 | 2498 ft | 147 kts | 134° |
| 2026-05-04 12:29 | 51.76357 | 0.03340 | 2505 ft | 143 kts | 86° |
| 2026-05-04 12:30 | 51.76526 | 0.04914 | 2503 ft | 143 kts | 73° |
| 2026-05-04 12:30 | 51.76998 | 0.06296 | 2502 ft | 142 kts | 44° |
| 2026-05-04 12:30 | 51.77720 | 0.07374 | 2501 ft | 142 kts | 41° |
| 2026-05-04 12:30 | 51.78441 | 0.08447 | 2501 ft | 141 kts | 42° |
| 2026-05-04 12:31 | 51.79162 | 0.09521 | 2504 ft | 142 kts | 41° |
| 2026-05-04 12:31 | 51.79889 | 0.10605 | 2425 ft | 142 kts | 41° |
| 2026-05-04 12:31 | 51.80615 | 0.11687 | 2280 ft | 141 kts | 41° |
| 2026-05-04 12:31 | 51.81339 | 0.12767 | 2098 ft | 142 kts | 41° |
| 2026-05-04 12:32 | 51.82060 | 0.13844 | 1918 ft | 141 kts | 41° |
| 2026-05-04 12:32 | 51.83501 | 0.15998 | 1526 ft | 141 kts | 42° |
| 2026-05-04 12:32 | 51.84205 | 0.17089 | 1347 ft | 140 kts | 43° |
| 2026-05-04 12:33 | 51.84900 | 0.18187 | 1233 ft | 140 kts | 41° |
| 2026-05-04 12:33 | 51.85635 | 0.19222 | 962 ft | 140 kts | 39° |
| 2026-05-04 12:33 | 51.86350 | 0.20270 | 727 ft | 139 kts | 43° |
| 2026-05-04 12:33 | 51.87062 | 0.21326 | 562 ft | 138 kts | 41° |
| 2026-05-04 12:34 | 51.87765 | 0.22382 | 368 ft | 136 kts | 40° |
| 2026-05-04 12:34 | 51.88384 | 0.23302 | 332 ft | 99 kts | 43° |
| 2026-05-04 12:34 | 51.88760 | 0.23870 | 334 ft | 47 kts | 47° |
| 2026-05-04 12:34 | 51.88860 | 0.24133 | 335 ft | 12 kts | 68° |
| 2026-05-04 12:35 | 51.88881 | 0.24231 | 346 ft | 7 kts | 73° |
| 2026-05-04 12:35 | 51.88889 | 0.24277 | 351 ft | 0 kts | 73° |
| 2026-05-04 12:35 | 51.88892 | 0.24288 | 351 ft | 4 kts | 73° |
| 2026-05-04 12:35 | 51.88902 | 0.24340 | 344 ft | 5 kts | 72° |
| 2026-05-04 12:36 | 51.88912 | 0.24396 | 346 ft | 0 kts | 73° |
| 2026-05-04 12:36 | 51.88914 | 0.24410 | 345 ft | 6 kts | 73° |
| 2026-05-04 12:37 | 51.88905 | 0.24520 | 349 ft | 13 kts | 104° |
| 2026-05-04 12:37 | 51.88954 | 0.24646 | 348 ft | 16 kts | 41° |
| 2026-05-04 12:37 | 51.88986 | 0.24694 | 343 ft | 0 kts | 43° |
| 2026-05-04 12:40 | 51.89025 | 0.24754 | 348 ft | 14 kts | 43° |
| 2026-05-04 12:40 | 51.89108 | 0.24877 | 348 ft | 18 kts | 42° |
| 2026-05-04 12:41 | 51.89206 | 0.25030 | 343 ft | 21 kts | 47° |
| 2026-05-04 12:41 | 51.89215 | 0.25210 | 349 ft | 19 kts | 131° |
| 2026-05-04 12:41 | 51.89127 | 0.25357 | 337 ft | 19 kts | 126° |
| 2026-05-04 12:41 | 51.89115 | 0.25381 | 337 ft | 1 kts | 128° |
| 2026-05-04 12:42 | 51.89108 | 0.25397 | 339 ft | 2 kts | 128° |
| 2026-05-04 12:42 | 51.89097 | 0.25418 | 335 ft | 2 kts | 129° |
| 2026-05-04 12:42 | 51.89089 | 0.25434 | 338 ft | 2 kts | 129° |
| 2026-05-04 12:42 | 51.89076 | 0.25460 | 337 ft | 4 kts | 129° |
| 2026-05-04 12:43 | 51.89051 | 0.25505 | 339 ft | 9 kts | 136° |
| 2026-05-04 12:43 | 51.88989 | 0.25509 | 335 ft | 11 kts | 225° |
| 2026-05-04 12:43 | 51.88968 | 0.25469 | 337 ft | 0 kts | 231° |